Terminal Aerodrome Forecast
Issued by NWS

Home | Current Version | Previous Version | Graphics & Text | Print | Product List | Glossary On
Versions: 1 2 3 4 5 6 7 8 9 10 11 12 13 14 15 16 17
000
FTUS43 KIWX 131700
TAFSBN
TAF
KSBN 131720Z 1318/1418 34010G18KT P6SM SCT025 BKN040
     FM132200 33004KT P6SM SCT045
     FM140000 00000KT P6SM SKC
      TEMPO 1409/1413 4SM BR
     FM141300 21006KT P6SM SKC=

USA.gov is the U.S. government's official web portal to all federal, state and local government web resources and services.